Michigan City, IN

12:08 AM CDT on August 26, 2016 (GMT -0500)
Michigan City Municipal

Weather History for KMGC - March, 2014

Change the Weather History Date:

Saturday, March 15, 2014

  Actual Average (KVPZ) Record (KVPZ)
Temperature  
Mean Temperature 32 °F 37 °F  
Max Temperature 37 °F 46 °F 81 °F (2012)
Min Temperature 28 °F 29 °F -2 °F (1993)
Degree Days  
Heating Degree Days 32 28  
Month to date heating degree days 453  
Since 1 July heating degree days 5185  
Cooling Degree Days 0 0  
Month to date cooling degree days 0  
Year to date cooling degree days 0  
Moisture  
Dew Point 26 °F    
Average Humidity 74    
Maximum Humidity 87    
Minimum Humidity 64    
Precipitation  
Precipitation 0.00 in 0.08 in 1.92 in (1929)
Month to date precipitation 1.12  
Year to date precipitation 4.29  
Sea Level Pressure  
Sea Level Pressure 30.08 in    
Wind  
Wind Speed 9 mph (NNW)    
Max Wind Speed 13 mph    
Max Gust Speed 22 mph    
Visibility 10 miles    
Events      
T = Trace of Precipitation, MM = Missing Value Source: NWS Daily Summary

Daily Weather History Graph

Daily Weather History Graph

Search for Another Location

Airport or City:

Trip Planner

Search our weather history database for the weather conditions in past years. The results will help you decide how hot, cold, wet, or windy it might be!

Date:

Astronomy

Mar. 15, 2014 Rise Set
Actual Time 6:59 AM CDT 6:53 PM CDT
Civil Twilight 6:31 AM CDT 7:21 PM CDT
Nautical Twilight 5:59 AM CDT 7:53 PM CDT
Astronomical Twilight 5:26 AM CDT 8:26 PM CDT
Moon 6:12 PM CDT (3/15) 6:11 AM CDT (3/15)
Length of Visible Light 12h 50m
Length of Day
11h 54m
Waxing Gibbous, 99% of the Moon is Illuminated
Mar 15
Waxing Gibbous
Mar 16
Full
Mar 23
Last Quarter
Mar 30
New
Apr 7
First Quarter

Hourly Weather History & Observations

Time (CDT) Temp. Windchill Dew Point Humidity Pressure Visibility Wind Dir Wind Speed Gust Speed Precip Events Conditions
12:15 AM 37.4 °F 30.3 °F 30.2 °F 75% 29.85 in 10.0 mi WNW 10.4 mph 19.6 mph N/A   Scattered Clouds
12:35 AM 37.4 °F 31.4 °F 30.2 °F 75% 29.85 in 10.0 mi West 8.1 mph - N/A   Overcast
12:55 AM 37.4 °F 30.3 °F 30.2 °F 75% 29.86 in 10.0 mi West 10.4 mph 16.1 mph N/A   Overcast
1:15 AM 37.4 °F 31.4 °F 30.2 °F 75% 29.86 in 10.0 mi West 8.1 mph - N/A   Overcast
1:35 AM 37.4 °F 31.4 °F 30.2 °F 75% 29.86 in 10.0 mi West 8.1 mph - N/A   Overcast
1:55 AM 37.4 °F 30.8 °F 30.2 °F 75% 29.87 in 10.0 mi West 9.2 mph - N/A   Overcast
2:15 AM 37.4 °F 32.8 °F 30.2 °F 75% 29.88 in 10.0 mi West 5.8 mph - N/A   Overcast
2:35 AM 37.4 °F 29.8 °F 30.2 °F 75% 29.89 in 10.0 mi West 11.5 mph 21.9 mph N/A   Overcast
2:55 AM 35.6 °F 28.6 °F 30.2 °F 81% 29.89 in 10.0 mi West 9.2 mph - N/A   Overcast
3:15 AM 35.6 °F 28.0 °F 30.2 °F 81% 29.89 in 10.0 mi West 10.4 mph 16.1 mph N/A   Mostly Cloudy
3:35 AM 35.6 °F 29.9 °F 30.2 °F 81% 29.89 in 10.0 mi West 6.9 mph - N/A   Scattered Clouds
3:55 AM 35.6 °F 28.6 °F 30.2 °F 81% 29.90 in 10.0 mi West 9.2 mph - N/A   Clear
4:15 AM 35.6 °F 28.6 °F 30.2 °F 81% 29.91 in 10.0 mi West 9.2 mph - N/A   Clear
4:35 AM 35.6 °F 28.6 °F 30.2 °F 81% 29.92 in 10.0 mi West 9.2 mph - N/A   Clear
4:55 AM 33.8 °F 25.8 °F 30.2 °F 87% 29.93 in 10.0 mi West 10.4 mph - N/A   Clear
5:15 AM 33.8 °F 26.4 °F 28.4 °F 81% 29.93 in 10.0 mi WNW 9.2 mph - N/A   Clear
5:35 AM 33.8 °F 27.7 °F 28.4 °F 81% 29.94 in 10.0 mi West 6.9 mph - N/A   Clear
5:55 AM 33.8 °F 26.4 °F 28.4 °F 81% 29.94 in 10.0 mi WNW 9.2 mph - N/A   Clear
6:15 AM 33.8 °F 26.4 °F 28.4 °F 81% 29.96 in 10.0 mi WNW 9.2 mph - N/A   Clear
6:35 AM 32.0 °F 24.8 °F 26.6 °F 80% 29.98 in 10.0 mi WNW 8.1 mph - N/A   Clear
6:55 AM 32.0 °F 23.6 °F 26.6 °F 80% 29.99 in 10.0 mi WNW 10.4 mph - N/A   Clear
7:15 AM 32.0 °F 26.4 °F 26.6 °F 80% 30.00 in 10.0 mi WNW 5.8 mph - N/A   Scattered Clouds
7:35 AM 32.0 °F 24.8 °F 26.6 °F 80% 30.00 in 10.0 mi NW 8.1 mph 18.4 mph N/A   Clear
7:55 AM 32.0 °F 24.8 °F 24.8 °F 75% 30.01 in 10.0 mi NW 8.1 mph 16.1 mph N/A   Clear
8:15 AM 33.8 °F 25.3 °F 24.8 °F 70% 30.02 in 10.0 mi NW 11.5 mph 17.3 mph N/A   Clear
8:35 AM 33.8 °F 25.8 °F 24.8 °F 70% 30.03 in 10.0 mi NW 10.4 mph 18.4 mph N/A   Clear
8:55 AM 33.8 °F 24.8 °F 24.8 °F 70% 30.04 in 10.0 mi NW 12.7 mph 17.3 mph N/A   Clear
9:15 AM 33.8 °F 27.7 °F 24.8 °F 70% 30.05 in 10.0 mi NW 6.9 mph 16.1 mph N/A   Clear
9:35 AM 33.8 °F 25.8 °F 24.8 °F 70% 30.07 in 10.0 mi NNW 10.4 mph - N/A   Clear
9:55 AM 33.8 °F 27.0 °F 26.6 °F 75% 30.07 in 10.0 mi North 8.1 mph 19.6 mph N/A   Clear
10:15 AM 33.8 °F 27.0 °F 26.6 °F 75% 30.07 in 10.0 mi NNW 8.1 mph 16.1 mph N/A   Scattered Clouds
10:35 AM 33.8 °F 28.6 °F 26.6 °F 75% 30.07 in 10.0 mi North 5.8 mph - N/A   Mostly Cloudy
10:55 AM 35.6 °F 29.2 °F 28.4 °F 75% 30.08 in 10.0 mi NNE 8.1 mph - N/A   Mostly Cloudy
11:15 AM 33.8 °F 27.0 °F 26.6 °F 75% 30.10 in 10.0 mi North 8.1 mph - N/A   Overcast
11:35 AM 35.6 °F 29.2 °F 26.6 °F 70% 30.10 in 10.0 mi NE 8.1 mph - N/A   Overcast
11:55 AM 35.6 °F 30.7 °F 26.6 °F 70% 30.12 in 10.0 mi North 5.8 mph - N/A   Overcast
12:15 PM 35.6 °F 29.9 °F 26.6 °F 70% 30.13 in 10.0 mi North 6.9 mph - N/A   Mostly Cloudy
12:35 PM 35.6 °F - 24.8 °F 65% 30.14 in 10.0 mi Calm Calm - N/A   Mostly Cloudy
1:15 PM 33.8 °F 26.4 °F 26.6 °F 75% 30.14 in 10.0 mi North 9.2 mph - N/A   Overcast
1:35 PM 35.6 °F 28.6 °F 26.6 °F 70% 30.13 in 10.0 mi North 9.2 mph - N/A   Overcast
1:55 PM 33.8 °F 26.4 °F 26.6 °F 75% 30.13 in 10.0 mi North 9.2 mph 16.1 mph N/A   Overcast
2:15 PM 33.8 °F 25.3 °F 26.6 °F 75% 30.13 in 10.0 mi NNW 11.5 mph - N/A   Overcast
2:35 PM 33.8 °F 25.3 °F 26.6 °F 75% 30.14 in 10.0 mi North 11.5 mph - N/A   Overcast
2:55 PM 33.8 °F 25.8 °F 26.6 °F 75% 30.14 in 10.0 mi NNE 10.4 mph - N/A   Mostly Cloudy
3:15 PM 33.8 °F 27.0 °F 26.6 °F 75% 30.14 in 10.0 mi North 8.1 mph - N/A   Mostly Cloudy
3:35 PM 32.0 °F 24.2 °F 24.8 °F 75% 30.14 in 10.0 mi NE 9.2 mph - N/A   Mostly Cloudy
3:55 PM 32.0 °F 23.6 °F 23.0 °F 69% 30.15 in 10.0 mi NNE 10.4 mph - N/A   Mostly Cloudy
4:15 PM 32.0 °F 27.5 °F 24.8 °F 75% 30.16 in 10.0 mi North 4.6 mph - N/A   Mostly Cloudy
4:35 PM 32.0 °F 23.6 °F 23.0 °F 69% 30.16 in 10.0 mi North 10.4 mph - N/A   Overcast
4:55 PM 32.0 °F 24.2 °F 23.0 °F 69% 30.16 in 10.0 mi NNE 9.2 mph - N/A   Mostly Cloudy
5:15 PM 32.0 °F 24.8 °F 23.0 °F 69% 30.17 in 10.0 mi NNE 8.1 mph - N/A   Scattered Clouds
5:35 PM 32.0 °F 25.6 °F 23.0 °F 69% 30.17 in 10.0 mi NE 6.9 mph - N/A   Mostly Cloudy
5:55 PM 32.0 °F 27.5 °F 23.0 °F 69% 30.18 in 10.0 mi NNE 4.6 mph - N/A   Mostly Cloudy
6:15 PM 32.0 °F 25.6 °F 23.0 °F 69% 30.18 in 10.0 mi NNE 6.9 mph - N/A   Overcast
6:35 PM 30.2 °F 24.3 °F 23.0 °F 75% 30.19 in 10.0 mi NNE 5.8 mph - N/A   Overcast
6:55 PM 30.2 °F 23.4 °F 21.2 °F 69% 30.19 in 10.0 mi NNE 6.9 mph - N/A   Overcast
7:15 PM 30.2 °F 23.4 °F 21.2 °F 69% 30.20 in 10.0 mi NNE 6.9 mph - N/A   Overcast
7:35 PM 30.2 °F 22.6 °F 21.2 °F 69% 30.21 in 10.0 mi NNE 8.1 mph - N/A   Mostly Cloudy
7:55 PM 30.2 °F 24.3 °F 21.2 °F 69% 30.22 in 10.0 mi NNE 5.8 mph - N/A   Mostly Cloudy
8:15 PM 30.2 °F 26.7 °F 21.2 °F 69% 30.22 in 10.0 mi NE 3.5 mph - N/A   Mostly Cloudy
8:35 PM 30.2 °F 21.9 °F 19.4 °F 64% 30.23 in 10.0 mi NE 9.2 mph - N/A   Overcast
8:55 PM 30.2 °F 22.6 °F 19.4 °F 64% 30.24 in 10.0 mi NE 8.1 mph - N/A   Overcast
9:15 PM 30.2 °F 22.6 °F 19.4 °F 64% 30.25 in 10.0 mi NE 8.1 mph - N/A   Overcast
9:35 PM 30.2 °F 22.6 °F 21.2 °F 69% 30.26 in 10.0 mi NE 8.1 mph - N/A   Overcast
9:55 PM 28.4 °F 22.2 °F 21.2 °F 74% 30.26 in 10.0 mi NNE 5.8 mph - N/A   Overcast
10:15 PM 28.4 °F 22.2 °F 21.2 °F 74% 30.26 in 10.0 mi NNE 5.8 mph - N/A   Overcast
10:35 PM 30.2 °F 21.9 °F 21.2 °F 69% 30.25 in 10.0 mi NNE 9.2 mph - N/A   Overcast
10:55 PM 28.4 °F 18.0 °F 21.2 °F 74% 30.24 in 10.0 mi NNE 12.7 mph 16.1 mph N/A   Overcast
11:15 PM 28.4 °F 22.2 °F 23.0 °F 80% 30.23 in 10.0 mi NE 5.8 mph - N/A   Scattered Clouds
11:35 PM 28.4 °F 22.2 °F 23.0 °F 80% 30.23 in 10.0 mi NNE 5.8 mph - N/A   Clear
11:55 PM 28.4 °F 22.2 °F 23.0 °F 80% 30.24 in 10.0 mi NNE 5.8 mph - N/A   Clear